Terminal Aerodrome Forecast
Issued by NWS Upton, NY

Home | Current Version | Previous Version | Text Only | Print | Product List | Glossary On
Versions: 1 2 3 4 5 6 7 8 9 10 11 12 13 14 15 16 17 18 19 20 21 22 23 24 25 26 27 28 29 30 31 32 33
000
FTUS41 KOKX 230247 AAA
TAFLGA
TAF AMD
KLGA 230247Z 2303/2324 19008KT P6SM SCT050 BKN100
     FM230500 20006KT P6SM SCT050 BKN100
     FM230800 20005KT 5SM BR SCT005 BKN100
     FM231000 20005KT P6SM SCT005 BKN100
     FM231200 20006KT P6SM VCSH SCT005 BKN100
     FM231500 22010KT P6SM VCSH SCT025 BKN100
     FM231900 21015KT P6SM VCTS SCT025CB BKN050=

USA.gov is the U.S. government's official web portal to all federal, state and local government web resources and services.